sensor_id;sensor_type;location;lat;lon;timestamp;P1;durP1;ratioP1;P2;durP2;ratioP2
63693;SDS011;49839;51.798;10.954;2022-07-21T00:02:23;13.13;;;8.77;;
63693;SDS011;49839;51.798;10.954;2022-07-21T00:04:51;14.75;;;8.80;;
63693;SDS011;49839;51.798;10.954;2022-07-21T00:07:19;11.05;;;8.10;;
63693;SDS011;49839;51.798;10.954;2022-07-21T00:09:48;16.63;;;8.45;;
63693;SDS011;49839;51.798;10.954;2022-07-21T00:12:15;17.40;;;9.18;;
63693;SDS011;49839;51.798;10.954;2022-07-21T00:14:43;11.80;;;8.55;;
63693;SDS011;49839;51.798;10.954;2022-07-21T00:17:11;12.35;;;8.90;;
63693;SDS011;49839;51.798;10.954;2022-07-21T00:19:38;17.55;;;9.45;;
63693;SDS011;49839;51.798;10.954;2022-07-21T00:22:06;15.00;;;8.82;;
63693;SDS011;49839;51.798;10.954;2022-07-21T00:24:33;13.65;;;9.07;;
63693;SDS011;49839;51.798;10.954;2022-07-21T00:27:03;16.30;;;9.60;;
63693;SDS011;49839;51.798;10.954;2022-07-21T00:29:33;15.30;;;9.48;;
63693;SDS011;49839;51.798;10.954;2022-07-21T00:32:03;17.65;;;10.65;;
63693;SDS011;49839;51.798;10.954;2022-07-21T00:34:32;19.95;;;9.23;;
63693;SDS011;49839;51.798;10.954;2022-07-21T00:37:00;12.68;;;8.75;;
63693;SDS011;49839;51.798;10.954;2022-07-21T00:39:28;14.60;;;8.82;;
63693;SDS011;49839;51.798;10.954;2022-07-21T00:41:55;16.15;;;8.95;;
63693;SDS011;49839;51.798;10.954;2022-07-21T00:44:25;16.60;;;9.68;;
63693;SDS011;49839;51.798;10.954;2022-07-21T00:46:54;16.05;;;8.85;;
63693;SDS011;49839;51.798;10.954;2022-07-21T00:49:22;12.35;;;8.63;;
63693;SDS011;49839;51.798;10.954;2022-07-21T00:51:51;14.63;;;8.13;;
63693;SDS011;49839;51.798;10.954;2022-07-21T00:54:18;13.30;;;8.35;;
63693;SDS011;49839;51.798;10.954;2022-07-21T00:56:46;13.65;;;7.38;;
63693;SDS011;49839;51.798;10.954;2022-07-21T00:59:14;15.88;;;7.53;;
63693;SDS011;49839;51.798;10.954;2022-07-21T01:01:43;12.57;;;7.22;;
63693;SDS011;49839;51.798;10.954;2022-07-21T01:04:11;11.45;;;7.70;;
63693;SDS011;49839;51.798;10.954;2022-07-21T01:06:39;10.82;;;6.97;;
63693;SDS011;49839;51.798;10.954;2022-07-21T01:09:06;9.40;;;6.28;;
63693;SDS011;49839;51.798;10.954;2022-07-21T01:11:36;9.95;;;6.50;;
63693;SDS011;49839;51.798;10.954;2022-07-21T01:14:05;10.82;;;6.72;;
63693;SDS011;49839;51.798;10.954;2022-07-21T01:16:33;12.43;;;6.32;;
63693;SDS011;49839;51.798;10.954;2022-07-21T01:19:02;11.35;;;6.30;;
63693;SDS011;49839;51.798;10.954;2022-07-21T01:21:34;10.95;;;6.78;;
63693;SDS011;49839;51.798;10.954;2022-07-21T01:24:04;12.13;;;5.82;;
63693;SDS011;49839;51.798;10.954;2022-07-21T01:26:39;11.82;;;5.85;;
63693;SDS011;49839;51.798;10.954;2022-07-21T01:29:07;11.43;;;5.47;;
63693;SDS011;49839;51.798;10.954;2022-07-21T01:31:36;10.95;;;5.40;;
63693;SDS011;49839;51.798;10.954;2022-07-21T01:34:05;10.82;;;5.25;;
63693;SDS011;49839;51.798;10.954;2022-07-21T01:36:34;8.90;;;4.80;;
63693;SDS011;49839;51.798;10.954;2022-07-21T01:39:02;6.97;;;4.18;;
63693;SDS011;49839;51.798;10.954;2022-07-21T01:41:48;8.23;;;4.50;;
63693;SDS011;49839;51.798;10.954;2022-07-21T01:44:15;7.90;;;4.53;;
63693;SDS011;49839;51.798;10.954;2022-07-21T01:46:44;7.10;;;4.45;;
63693;SDS011;49839;51.798;10.954;2022-07-21T01:49:13;7.90;;;4.60;;
63693;SDS011;49839;51.798;10.954;2022-07-21T01:51:44;9.50;;;4.20;;
63693;SDS011;49839;51.798;10.954;2022-07-21T01:54:11;6.40;;;3.67;;
63693;SDS011;49839;51.798;10.954;2022-07-21T01:56:42;6.63;;;4.15;;
63693;SDS011;49839;51.798;10.954;2022-07-21T01:59:12;6.05;;;3.92;;
63693;SDS011;49839;51.798;10.954;2022-07-21T02:01:40;10.05;;;4.57;;
63693;SDS011;49839;51.798;10.954;2022-07-21T02:04:08;8.25;;;4.40;;
63693;SDS011;49839;51.798;10.954;2022-07-21T02:06:35;10.30;;;3.78;;
63693;SDS011;49839;51.798;10.954;2022-07-21T02:09:04;8.20;;;4.25;;
63693;SDS011;49839;51.798;10.954;2022-07-21T02:11:33;7.30;;;4.22;;
63693;SDS011;49839;51.798;10.954;2022-07-21T02:14:00;7.90;;;3.78;;
63693;SDS011;49839;51.798;10.954;2022-07-21T02:16:28;7.65;;;3.75;;
63693;SDS011;49839;51.798;10.954;2022-07-21T02:18:57;8.13;;;3.97;;
63693;SDS011;49839;51.798;10.954;2022-07-21T02:21:24;8.35;;;3.45;;
63693;SDS011;49839;51.798;10.954;2022-07-21T02:23:52;7.63;;;3.28;;
63693;SDS011;49839;51.798;10.954;2022-07-21T02:26:21;6.13;;;3.40;;
63693;SDS011;49839;51.798;10.954;2022-07-21T02:31:17;6.28;;;3.08;;
63693;SDS011;49839;51.798;10.954;2022-07-21T02:33:44;6.45;;;3.22;;
63693;SDS011;49839;51.798;10.954;2022-07-21T02:36:12;6.63;;;3.05;;
63693;SDS011;49839;51.798;10.954;2022-07-21T02:38:40;7.88;;;2.95;;
63693;SDS011;49839;51.798;10.954;2022-07-21T02:41:07;5.03;;;2.80;;
63693;SDS011;49839;51.798;10.954;2022-07-21T02:43:36;5.10;;;2.70;;
63693;SDS011;49839;51.798;10.954;2022-07-21T02:46:04;4.93;;;2.95;;
63693;SDS011;49839;51.798;10.954;2022-07-21T02:48:31;6.55;;;2.50;;
63693;SDS011;49839;51.798;10.954;2022-07-21T02:50:59;8.98;;;2.65;;
63693;SDS011;49839;51.798;10.954;2022-07-21T02:53:27;4.88;;;2.53;;
63693;SDS011;49839;51.798;10.954;2022-07-21T02:55:54;5.03;;;2.40;;
63693;SDS011;49839;51.798;10.954;2022-07-21T02:58:23;4.95;;;2.40;;
63693;SDS011;49839;51.798;10.954;2022-07-21T03:00:55;4.28;;;2.22;;
63693;SDS011;49839;51.798;10.954;2022-07-21T03:03:24;7.35;;;2.22;;
63693;SDS011;49839;51.798;10.954;2022-07-21T03:05:54;6.80;;;2.40;;
63693;SDS011;49839;51.798;10.954;2022-07-21T03:08:22;5.23;;;2.30;;
63693;SDS011;49839;51.798;10.954;2022-07-21T03:10:50;9.20;;;2.53;;
63693;SDS011;49839;51.798;10.954;2022-07-21T03:13:18;6.38;;;2.65;;
63693;SDS011;49839;51.798;10.954;2022-07-21T03:15:46;4.88;;;2.28;;
63693;SDS011;49839;51.798;10.954;2022-07-21T03:18:15;39.60;;;31.05;;
63693;SDS011;49839;51.798;10.954;2022-07-21T03:20:43;4.85;;;1.92;;
63693;SDS011;49839;51.798;10.954;2022-07-21T03:23:12;4.70;;;2.33;;
63693;SDS011;49839;51.798;10.954;2022-07-21T03:25:40;5.60;;;2.10;;
63693;SDS011;49839;51.798;10.954;2022-07-21T03:28:08;4.72;;;2.08;;
63693;SDS011;49839;51.798;10.954;2022-07-21T03:30:35;6.30;;;2.10;;
63693;SDS011;49839;51.798;10.954;2022-07-21T03:33:04;3.85;;;2.05;;
63693;SDS011;49839;51.798;10.954;2022-07-21T03:35:33;6.03;;;2.45;;
63693;SDS011;49839;51.798;10.954;2022-07-21T03:38:02;5.60;;;2.22;;
63693;SDS011;49839;51.798;10.954;2022-07-21T03:40:30;5.33;;;2.10;;
63693;SDS011;49839;51.798;10.954;2022-07-21T03:43:02;3.00;;;1.80;;
63693;SDS011;49839;51.798;10.954;2022-07-21T03:45:32;4.78;;;1.92;;
63693;SDS011;49839;51.798;10.954;2022-07-21T03:48:02;3.47;;;2.13;;
63693;SDS011;49839;51.798;10.954;2022-07-21T03:50:34;6.93;;;2.10;;
63693;SDS011;49839;51.798;10.954;2022-07-21T03:53:03;5.28;;;1.90;;
63693;SDS011;49839;51.798;10.954;2022-07-21T03:55:31;4.60;;;2.00;;
63693;SDS011;49839;51.798;10.954;2022-07-21T03:58:03;3.95;;;1.80;;
63693;SDS011;49839;51.798;10.954;2022-07-21T04:00:33;4.85;;;1.77;;
63693;SDS011;49839;51.798;10.954;2022-07-21T04:03:03;3.60;;;1.83;;
63693;SDS011;49839;51.798;10.954;2022-07-21T04:05:34;5.00;;;2.20;;
63693;SDS011;49839;51.798;10.954;2022-07-21T04:08:04;3.47;;;1.90;;
63693;SDS011;49839;51.798;10.954;2022-07-21T04:10:35;6.55;;;1.83;;
63693;SDS011;49839;51.798;10.954;2022-07-21T04:13:05;5.72;;;1.95;;
63693;SDS011;49839;51.798;10.954;2022-07-21T04:15:34;4.03;;;1.90;;
63693;SDS011;49839;51.798;10.954;2022-07-21T04:18:02;5.67;;;1.90;;
63693;SDS011;49839;51.798;10.954;2022-07-21T04:20:30;3.63;;;2.00;;
63693;SDS011;49839;51.798;10.954;2022-07-21T04:23:00;3.28;;;1.77;;
63693;SDS011;49839;51.798;10.954;2022-07-21T04:25:28;9.40;;;2.50;;
63693;SDS011;49839;51.798;10.954;2022-07-21T04:27:56;5.53;;;1.90;;
63693;SDS011;49839;51.798;10.954;2022-07-21T04:30:24;7.13;;;2.17;;
63693;SDS011;49839;51.798;10.954;2022-07-21T04:32:52;5.65;;;2.35;;
63693;SDS011;49839;51.798;10.954;2022-07-21T04:35:20;3.92;;;2.30;;
63693;SDS011;49839;51.798;10.954;2022-07-21T04:37:47;5.13;;;2.30;;
63693;SDS011;49839;51.798;10.954;2022-07-21T04:40:17;4.63;;;2.33;;
63693;SDS011;49839;51.798;10.954;2022-07-21T04:42:45;4.13;;;2.08;;
63693;SDS011;49839;51.798;10.954;2022-07-21T04:45:13;5.07;;;2.05;;
63693;SDS011;49839;51.798;10.954;2022-07-21T04:47:43;4.78;;;2.17;;
63693;SDS011;49839;51.798;10.954;2022-07-21T04:50:12;4.88;;;2.35;;
63693;SDS011;49839;51.798;10.954;2022-07-21T04:52:41;3.90;;;2.20;;
63693;SDS011;49839;51.798;10.954;2022-07-21T04:55:09;5.85;;;2.38;;
63693;SDS011;49839;51.798;10.954;2022-07-21T04:57:40;4.45;;;2.35;;
63693;SDS011;49839;51.798;10.954;2022-07-21T05:00:10;4.00;;;2.15;;
63693;SDS011;49839;51.798;10.954;2022-07-21T05:02:39;4.68;;;2.42;;
63693;SDS011;49839;51.798;10.954;2022-07-21T05:05:08;6.32;;;2.65;;
63693;SDS011;49839;51.798;10.954;2022-07-21T05:07:36;4.95;;;2.42;;
63693;SDS011;49839;51.798;10.954;2022-07-21T05:10:07;5.00;;;2.35;;
63693;SDS011;49839;51.798;10.954;2022-07-21T05:12:39;4.82;;;2.40;;
63693;SDS011;49839;51.798;10.954;2022-07-21T05:15:08;6.05;;;2.30;;
63693;SDS011;49839;51.798;10.954;2022-07-21T05:17:37;6.28;;;3.00;;
63693;SDS011;49839;51.798;10.954;2022-07-21T05:20:06;5.40;;;2.58;;
63693;SDS011;49839;51.798;10.954;2022-07-21T05:22:35;7.63;;;2.63;;
63693;SDS011;49839;51.798;10.954;2022-07-21T05:25:03;5.50;;;2.70;;
63693;SDS011;49839;51.798;10.954;2022-07-21T05:27:31;7.93;;;2.88;;
63693;SDS011;49839;51.798;10.954;2022-07-21T05:30:00;6.72;;;2.67;;
63693;SDS011;49839;51.798;10.954;2022-07-21T05:32:27;4.95;;;3.00;;
63693;SDS011;49839;51.798;10.954;2022-07-21T05:34:55;6.32;;;2.78;;
63693;SDS011;49839;51.798;10.954;2022-07-21T05:37:23;4.30;;;2.60;;
63693;SDS011;49839;51.798;10.954;2022-07-21T05:39:51;6.60;;;2.80;;
63693;SDS011;49839;51.798;10.954;2022-07-21T05:42:19;4.82;;;2.92;;
63693;SDS011;49839;51.798;10.954;2022-07-21T05:44:46;7.13;;;2.90;;
63693;SDS011;49839;51.798;10.954;2022-07-21T05:47:16;4.65;;;2.80;;
63693;SDS011;49839;51.798;10.954;2022-07-21T05:49:43;5.57;;;3.08;;
63693;SDS011;49839;51.798;10.954;2022-07-21T05:52:11;7.28;;;3.17;;
63693;SDS011;49839;51.798;10.954;2022-07-21T05:54:38;5.45;;;2.88;;
63693;SDS011;49839;51.798;10.954;2022-07-21T05:57:06;6.43;;;2.40;;
63693;SDS011;49839;51.798;10.954;2022-07-21T05:59:34;5.40;;;2.65;;
63693;SDS011;49839;51.798;10.954;2022-07-21T06:02:01;5.45;;;2.80;;
63693;SDS011;49839;51.798;10.954;2022-07-21T06:04:30;4.07;;;2.38;;
63693;SDS011;49839;51.798;10.954;2022-07-21T06:06:58;4.35;;;2.65;;
63693;SDS011;49839;51.798;10.954;2022-07-21T06:09:26;6.03;;;2.80;;
63693;SDS011;49839;51.798;10.954;2022-07-21T06:11:53;4.80;;;2.88;;
63693;SDS011;49839;51.798;10.954;2022-07-21T06:14:21;7.28;;;2.80;;
63693;SDS011;49839;51.798;10.954;2022-07-21T06:16:49;4.97;;;2.80;;
63693;SDS011;49839;51.798;10.954;2022-07-21T06:19:17;4.10;;;3.00;;
63693;SDS011;49839;51.798;10.954;2022-07-21T06:21:46;7.63;;;3.00;;
63693;SDS011;49839;51.798;10.954;2022-07-21T06:26:42;4.35;;;2.85;;
63693;SDS011;49839;51.798;10.954;2022-07-21T06:29:10;6.22;;;3.20;;
63693;SDS011;49839;51.798;10.954;2022-07-21T06:31:37;5.35;;;3.15;;
63693;SDS011;49839;51.798;10.954;2022-07-21T06:34:05;7.68;;;3.05;;
63693;SDS011;49839;51.798;10.954;2022-07-21T06:36:33;5.53;;;3.20;;
63693;SDS011;49839;51.798;10.954;2022-07-21T06:39:02;6.45;;;3.20;;
63693;SDS011;49839;51.798;10.954;2022-07-21T06:41:29;7.82;;;3.40;;
63693;SDS011;49839;51.798;10.954;2022-07-21T06:43:57;8.88;;;3.40;;
63693;SDS011;49839;51.798;10.954;2022-07-21T06:46:25;6.77;;;3.00;;
63693;SDS011;49839;51.798;10.954;2022-07-21T06:48:53;5.20;;;2.85;;
63693;SDS011;49839;51.798;10.954;2022-07-21T06:51:20;6.22;;;2.85;;
63693;SDS011;49839;51.798;10.954;2022-07-21T06:53:48;4.88;;;2.70;;
63693;SDS011;49839;51.798;10.954;2022-07-21T06:56:17;5.07;;;2.80;;
63693;SDS011;49839;51.798;10.954;2022-07-21T06:58:46;4.28;;;2.83;;
63693;SDS011;49839;51.798;10.954;2022-07-21T07:01:16;4.07;;;2.67;;
63693;SDS011;49839;51.798;10.954;2022-07-21T07:03:45;5.13;;;2.45;;
63693;SDS011;49839;51.798;10.954;2022-07-21T07:06:12;4.00;;;2.67;;
63693;SDS011;49839;51.798;10.954;2022-07-21T07:08:40;5.00;;;2.72;;
63693;SDS011;49839;51.798;10.954;2022-07-21T07:11:10;5.28;;;2.80;;
63693;SDS011;49839;51.798;10.954;2022-07-21T07:13:39;4.80;;;2.63;;
63693;SDS011;49839;51.798;10.954;2022-07-21T07:18:57;6.40;;;2.70;;
63693;SDS011;49839;51.798;10.954;2022-07-21T07:21:24;5.47;;;2.92;;
63693;SDS011;49839;51.798;10.954;2022-07-21T07:23:52;4.03;;;2.70;;
63693;SDS011;49839;51.798;10.954;2022-07-21T07:26:20;4.78;;;2.65;;
63693;SDS011;49839;51.798;10.954;2022-07-21T07:28:49;5.47;;;2.85;;
63693;SDS011;49839;51.798;10.954;2022-07-21T07:31:17;4.80;;;2.60;;
63693;SDS011;49839;51.798;10.954;2022-07-21T07:33:44;4.60;;;2.50;;
63693;SDS011;49839;51.798;10.954;2022-07-21T07:36:12;5.25;;;3.08;;
63693;SDS011;49839;51.798;10.954;2022-07-21T07:38:39;5.22;;;2.72;;
63693;SDS011;49839;51.798;10.954;2022-07-21T07:41:10;6.10;;;2.40;;
63693;SDS011;49839;51.798;10.954;2022-07-21T07:43:37;5.40;;;2.88;;
63693;SDS011;49839;51.798;10.954;2022-07-21T07:46:07;5.22;;;2.80;;
63693;SDS011;49839;51.798;10.954;2022-07-21T07:48:37;5.10;;;2.60;;
63693;SDS011;49839;51.798;10.954;2022-07-21T07:51:05;6.45;;;2.47;;
63693;SDS011;49839;51.798;10.954;2022-07-21T07:53:32;5.75;;;2.80;;
63693;SDS011;49839;51.798;10.954;2022-07-21T07:56:00;3.90;;;2.75;;
63693;SDS011;49839;51.798;10.954;2022-07-21T07:58:28;6.43;;;2.95;;
63693;SDS011;49839;51.798;10.954;2022-07-21T08:00:55;5.60;;;3.10;;
63693;SDS011;49839;51.798;10.954;2022-07-21T08:03:29;6.50;;;3.30;;
63693;SDS011;49839;51.798;10.954;2022-07-21T08:05:57;6.57;;;3.70;;
63693;SDS011;49839;51.798;10.954;2022-07-21T08:08:29;4.68;;;3.10;;
63693;SDS011;49839;51.798;10.954;2022-07-21T08:10:57;6.63;;;3.22;;
63693;SDS011;49839;51.798;10.954;2022-07-21T08:13:24;7.70;;;4.30;;
63693;SDS011;49839;51.798;10.954;2022-07-21T08:15:55;7.32;;;4.28;;
63693;SDS011;49839;51.798;10.954;2022-07-21T08:18:25;7.45;;;3.53;;
63693;SDS011;49839;51.798;10.954;2022-07-21T08:20:55;5.93;;;3.55;;
63693;SDS011;49839;51.798;10.954;2022-07-21T08:25:50;5.35;;;3.70;;
63693;SDS011;49839;51.798;10.954;2022-07-21T08:28:17;5.03;;;3.20;;
63693;SDS011;49839;51.798;10.954;2022-07-21T08:30:45;8.05;;;3.15;;
63693;SDS011;49839;51.798;10.954;2022-07-21T08:33:12;6.22;;;3.35;;
63693;SDS011;49839;51.798;10.954;2022-07-21T08:35:40;5.72;;;3.67;;
63693;SDS011;49839;51.798;10.954;2022-07-21T08:38:10;6.38;;;3.60;;
63693;SDS011;49839;51.798;10.954;2022-07-21T08:40:39;6.18;;;3.28;;
63693;SDS011;49839;51.798;10.954;2022-07-21T08:43:11;5.70;;;3.40;;
63693;SDS011;49839;51.798;10.954;2022-07-21T08:45:40;5.97;;;3.78;;
63693;SDS011;49839;51.798;10.954;2022-07-21T08:48:09;6.57;;;3.85;;
63693;SDS011;49839;51.798;10.954;2022-07-21T08:50:37;6.45;;;3.55;;
63693;SDS011;49839;51.798;10.954;2022-07-21T08:53:06;5.05;;;3.60;;
63693;SDS011;49839;51.798;10.954;2022-07-21T08:55:36;5.63;;;3.55;;
63693;SDS011;49839;51.798;10.954;2022-07-21T08:58:06;6.40;;;3.78;;
63693;SDS011;49839;51.798;10.954;2022-07-21T09:00:35;6.47;;;3.92;;
63693;SDS011;49839;51.798;10.954;2022-07-21T09:03:13;5.78;;;4.00;;
63693;SDS011;49839;51.798;10.954;2022-07-21T09:05:58;5.72;;;3.78;;
63693;SDS011;49839;51.798;10.954;2022-07-21T09:08:31;6.30;;;3.97;;
63693;SDS011;49839;51.798;10.954;2022-07-21T09:11:13;7.70;;;4.07;;
63693;SDS011;49839;51.798;10.954;2022-07-21T09:13:43;6.22;;;3.80;;
63693;SDS011;49839;51.798;10.954;2022-07-21T09:16:13;5.80;;;3.95;;
63693;SDS011;49839;51.798;10.954;2022-07-21T09:18:46;6.95;;;3.92;;
63693;SDS011;49839;51.798;10.954;2022-07-21T09:21:15;8.48;;;4.00;;
63693;SDS011;49839;51.798;10.954;2022-07-21T09:23:44;6.53;;;3.70;;
63693;SDS011;49839;51.798;10.954;2022-07-21T09:26:13;5.22;;;3.83;;
63693;SDS011;49839;51.798;10.954;2022-07-21T09:28:42;7.25;;;3.70;;
63693;SDS011;49839;51.798;10.954;2022-07-21T09:31:10;5.95;;;3.50;;
63693;SDS011;49839;51.798;10.954;2022-07-21T09:33:40;5.95;;;4.10;;
63693;SDS011;49839;51.798;10.954;2022-07-21T09:36:10;6.13;;;3.78;;
63693;SDS011;49839;51.798;10.954;2022-07-21T09:38:40;6.90;;;3.72;;
63693;SDS011;49839;51.798;10.954;2022-07-21T09:41:11;5.43;;;3.85;;
63693;SDS011;49839;51.798;10.954;2022-07-21T09:43:42;6.82;;;4.07;;
63693;SDS011;49839;51.798;10.954;2022-07-21T09:46:13;4.97;;;3.80;;
63693;SDS011;49839;51.798;10.954;2022-07-21T09:48:43;6.47;;;3.85;;
63693;SDS011;49839;51.798;10.954;2022-07-21T09:51:29;4.47;;;3.83;;
63693;SDS011;49839;51.798;10.954;2022-07-21T09:53:59;6.65;;;4.10;;
63693;SDS011;49839;51.798;10.954;2022-07-21T09:56:28;11.02;;;4.70;;
63693;SDS011;49839;51.798;10.954;2022-07-21T09:59:00;14.45;;;5.35;;
63693;SDS011;49839;51.798;10.954;2022-07-21T10:01:30;9.07;;;4.90;;
63693;SDS011;49839;51.798;10.954;2022-07-21T10:03:59;7.22;;;4.53;;
63693;SDS011;49839;51.798;10.954;2022-07-21T10:06:29;7.57;;;4.32;;
63693;SDS011;49839;51.798;10.954;2022-07-21T10:08:59;6.18;;;4.10;;
63693;SDS011;49839;51.798;10.954;2022-07-21T10:11:28;8.20;;;4.55;;
63693;SDS011;49839;51.798;10.954;2022-07-21T10:13:56;7.93;;;4.72;;
63693;SDS011;49839;51.798;10.954;2022-07-21T10:16:25;8.23;;;4.60;;
63693;SDS011;49839;51.798;10.954;2022-07-21T10:18:56;8.52;;;4.82;;
63693;SDS011;49839;51.798;10.954;2022-07-21T10:21:34;7.35;;;4.20;;
63693;SDS011;49839;51.798;10.954;2022-07-21T10:24:06;5.82;;;3.95;;
63693;SDS011;49839;51.798;10.954;2022-07-21T10:26:37;7.55;;;3.90;;
63693;SDS011;49839;51.798;10.954;2022-07-21T10:29:05;5.15;;;3.70;;
63693;SDS011;49839;51.798;10.954;2022-07-21T10:31:36;9.57;;;4.07;;
63693;SDS011;49839;51.798;10.954;2022-07-21T10:34:09;7.25;;;4.07;;
63693;SDS011;49839;51.798;10.954;2022-07-21T10:36:40;6.65;;;3.80;;
63693;SDS011;49839;51.798;10.954;2022-07-21T10:39:12;6.53;;;3.30;;
63693;SDS011;49839;51.798;10.954;2022-07-21T10:41:50;4.57;;;3.10;;
63693;SDS011;49839;51.798;10.954;2022-07-21T10:47:08;4.82;;;3.00;;
63693;SDS011;49839;51.798;10.954;2022-07-21T10:49:41;7.15;;;2.92;;
63693;SDS011;49839;51.798;10.954;2022-07-21T10:55:16;4.63;;;2.60;;
63693;SDS011;49839;51.798;10.954;2022-07-21T11:00:37;4.20;;;2.40;;
63693;SDS011;49839;51.798;10.954;2022-07-21T11:03:14;4.22;;;2.47;;
63693;SDS011;49839;51.798;10.954;2022-07-21T11:08:42;2.50;;;1.88;;
63693;SDS011;49839;51.798;10.954;2022-07-21T11:11:11;5.22;;;2.28;;
63693;SDS011;49839;51.798;10.954;2022-07-21T11:19:42;7.10;;;2.25;;
63693;SDS011;49839;51.798;10.954;2022-07-21T11:22:14;5.38;;;2.42;;
63693;SDS011;49839;51.798;10.954;2022-07-21T11:24:44;3.47;;;2.40;;
63693;SDS011;49839;51.798;10.954;2022-07-21T11:27:13;4.68;;;2.40;;
63693;SDS011;49839;51.798;10.954;2022-07-21T11:29:43;5.63;;;2.22;;
63693;SDS011;49839;51.798;10.954;2022-07-21T11:32:18;5.72;;;2.28;;
63693;SDS011;49839;51.798;10.954;2022-07-21T11:34:48;3.42;;;2.20;;
63693;SDS011;49839;51.798;10.954;2022-07-21T11:37:17;5.65;;;2.10;;
63693;SDS011;49839;51.798;10.954;2022-07-21T11:40:03;5.03;;;2.15;;
63693;SDS011;49839;51.798;10.954;2022-07-21T11:42:32;3.90;;;2.17;;
63693;SDS011;49839;51.798;10.954;2022-07-21T11:45:00;3.47;;;2.13;;
63693;SDS011;49839;51.798;10.954;2022-07-21T11:47:28;4.03;;;2.35;;
63693;SDS011;49839;51.798;10.954;2022-07-21T11:49:57;3.35;;;1.98;;
63693;SDS011;49839;51.798;10.954;2022-07-21T11:52:26;5.65;;;2.30;;
63693;SDS011;49839;51.798;10.954;2022-07-21T11:54:55;3.55;;;1.88;;
63693;SDS011;49839;51.798;10.954;2022-07-21T11:57:26;3.67;;;2.10;;
63693;SDS011;49839;51.798;10.954;2022-07-21T11:59:54;4.10;;;1.80;;
63693;SDS011;49839;51.798;10.954;2022-07-21T12:02:24;3.88;;;1.63;;
63693;SDS011;49839;51.798;10.954;2022-07-21T12:04:53;3.40;;;1.80;;
63693;SDS011;49839;51.798;10.954;2022-07-21T12:07:24;2.80;;;1.70;;
63693;SDS011;49839;51.798;10.954;2022-07-21T12:09:55;3.47;;;1.90;;
63693;SDS011;49839;51.798;10.954;2022-07-21T12:12:28;3.40;;;1.83;;
63693;SDS011;49839;51.798;10.954;2022-07-21T12:14:57;2.72;;;1.73;;
63693;SDS011;49839;51.798;10.954;2022-07-21T12:17:32;4.57;;;1.90;;
63693;SDS011;49839;51.798;10.954;2022-07-21T12:20:01;3.75;;;1.80;;
63693;SDS011;49839;51.798;10.954;2022-07-21T12:22:34;2.83;;;1.80;;
63693;SDS011;49839;51.798;10.954;2022-07-21T12:25:04;4.57;;;1.88;;
63693;SDS011;49839;51.798;10.954;2022-07-21T12:27:34;3.88;;;2.13;;
63693;SDS011;49839;51.798;10.954;2022-07-21T12:30:02;3.20;;;1.63;;
63693;SDS011;49839;51.798;10.954;2022-07-21T12:35:10;2.45;;;1.60;;
63693;SDS011;49839;51.798;10.954;2022-07-21T12:37:56;4.85;;;1.90;;
63693;SDS011;49839;51.798;10.954;2022-07-21T12:40:26;6.28;;;2.03;;
63693;SDS011;49839;51.798;10.954;2022-07-21T12:45:56;4.38;;;1.95;;
63693;SDS011;49839;51.798;10.954;2022-07-21T12:53:44;3.85;;;2.00;;
63693;SDS011;49839;51.798;10.954;2022-07-21T12:56:15;3.88;;;1.80;;
63693;SDS011;49839;51.798;10.954;2022-07-21T12:58:44;4.15;;;2.17;;
63693;SDS011;49839;51.798;10.954;2022-07-21T13:01:12;7.80;;;2.58;;
63693;SDS011;49839;51.798;10.954;2022-07-21T13:03:40;5.72;;;1.80;;
63693;SDS011;49839;51.798;10.954;2022-07-21T13:06:08;2.55;;;1.60;;
63693;SDS011;49839;51.798;10.954;2022-07-21T13:08:37;3.78;;;1.75;;
63693;SDS011;49839;51.798;10.954;2022-07-21T13:11:07;3.15;;;2.05;;
63693;SDS011;49839;51.798;10.954;2022-07-21T13:13:38;3.17;;;2.10;;
63693;SDS011;49839;51.798;10.954;2022-07-21T13:16:07;4.93;;;2.03;;
63693;SDS011;49839;51.798;10.954;2022-07-21T13:18:34;3.70;;;1.88;;
63693;SDS011;49839;51.798;10.954;2022-07-21T13:21:02;3.05;;;1.65;;
63693;SDS011;49839;51.798;10.954;2022-07-21T13:23:31;2.45;;;1.70;;
63693;SDS011;49839;51.798;10.954;2022-07-21T13:25:59;4.63;;;1.88;;
63693;SDS011;49839;51.798;10.954;2022-07-21T13:28:33;4.43;;;1.85;;
63693;SDS011;49839;51.798;10.954;2022-07-21T13:31:03;4.68;;;1.60;;
63693;SDS011;49839;51.798;10.954;2022-07-21T13:33:33;3.75;;;1.77;;
63693;SDS011;49839;51.798;10.954;2022-07-21T13:36:01;4.43;;;1.77;;
63693;SDS011;49839;51.798;10.954;2022-07-21T13:38:28;2.50;;;1.67;;
63693;SDS011;49839;51.798;10.954;2022-07-21T13:40:56;5.55;;;1.90;;
63693;SDS011;49839;51.798;10.954;2022-07-21T13:43:46;3.58;;;1.60;;
63693;SDS011;49839;51.798;10.954;2022-07-21T13:46:17;4.53;;;1.80;;
63693;SDS011;49839;51.798;10.954;2022-07-21T13:48:45;4.35;;;1.63;;
63693;SDS011;49839;51.798;10.954;2022-07-21T13:51:14;3.05;;;1.48;;
63693;SDS011;49839;51.798;10.954;2022-07-21T13:53:43;3.25;;;1.63;;
63693;SDS011;49839;51.798;10.954;2022-07-21T13:56:13;3.13;;;1.42;;
63693;SDS011;49839;51.798;10.954;2022-07-21T13:58:41;9.30;;;1.63;;
63693;SDS011;49839;51.798;10.954;2022-07-21T14:01:10;3.38;;;1.58;;
63693;SDS011;49839;51.798;10.954;2022-07-21T14:03:39;5.03;;;1.80;;
63693;SDS011;49839;51.798;10.954;2022-07-21T14:06:08;4.00;;;1.60;;
63693;SDS011;49839;51.798;10.954;2022-07-21T14:08:36;3.53;;;1.58;;
63693;SDS011;49839;51.798;10.954;2022-07-21T14:11:05;3.38;;;1.52;;
63693;SDS011;49839;51.798;10.954;2022-07-21T14:13:33;3.28;;;1.77;;
63693;SDS011;49839;51.798;10.954;2022-07-21T14:16:03;2.85;;;1.83;;
63693;SDS011;49839;51.798;10.954;2022-07-21T14:18:33;5.20;;;1.70;;
63693;SDS011;49839;51.798;10.954;2022-07-21T14:21:01;3.58;;;1.80;;
63693;SDS011;49839;51.798;10.954;2022-07-21T14:23:29;4.32;;;1.98;;
63693;SDS011;49839;51.798;10.954;2022-07-21T14:25:56;5.18;;;1.98;;
63693;SDS011;49839;51.798;10.954;2022-07-21T14:28:23;3.90;;;1.90;;
63693;SDS011;49839;51.798;10.954;2022-07-21T14:30:51;3.05;;;1.75;;
63693;SDS011;49839;51.798;10.954;2022-07-21T14:33:25;3.25;;;1.92;;
63693;SDS011;49839;51.798;10.954;2022-07-21T14:35:54;2.42;;;1.60;;
63693;SDS011;49839;51.798;10.954;2022-07-21T14:38:22;3.33;;;1.83;;
63693;SDS011;49839;51.798;10.954;2022-07-21T14:40:50;3.03;;;1.80;;
63693;SDS011;49839;51.798;10.954;2022-07-21T14:43:18;5.32;;;1.63;;
63693;SDS011;49839;51.798;10.954;2022-07-21T14:45:45;3.03;;;1.60;;
63693;SDS011;49839;51.798;10.954;2022-07-21T14:48:13;4.82;;;1.60;;
63693;SDS011;49839;51.798;10.954;2022-07-21T14:50:40;4.88;;;1.70;;
63693;SDS011;49839;51.798;10.954;2022-07-21T14:53:09;3.17;;;1.63;;
63693;SDS011;49839;51.798;10.954;2022-07-21T14:55:37;2.28;;;1.23;;
63693;SDS011;49839;51.798;10.954;2022-07-21T14:58:09;4.03;;;1.67;;
63693;SDS011;49839;51.798;10.954;2022-07-21T15:00:37;3.42;;;1.63;;
63693;SDS011;49839;51.798;10.954;2022-07-21T15:03:05;3.00;;;1.48;;
63693;SDS011;49839;51.798;10.954;2022-07-21T15:05:32;3.70;;;1.52;;
63693;SDS011;49839;51.798;10.954;2022-07-21T15:08:00;2.83;;;1.30;;
63693;SDS011;49839;51.798;10.954;2022-07-21T15:10:29;2.67;;;1.40;;
63693;SDS011;49839;51.798;10.954;2022-07-21T15:12:57;3.67;;;1.23;;
63693;SDS011;49839;51.798;10.954;2022-07-21T15:15:25;3.13;;;1.55;;
63693;SDS011;49839;51.798;10.954;2022-07-21T15:17:52;2.53;;;1.20;;
63693;SDS011;49839;51.798;10.954;2022-07-21T15:20:20;2.03;;;1.38;;
63693;SDS011;49839;51.798;10.954;2022-07-21T15:22:48;2.95;;;1.20;;
63693;SDS011;49839;51.798;10.954;2022-07-21T15:25:15;1.85;;;1.20;;